createdAt,value
2018-01-20T00:02:09.594Z,30.42
2018-01-20T00:04:37.197Z,26.25
2018-01-20T00:07:04.738Z,26.55
2018-01-20T00:09:44.237Z,27.55
2018-01-20T00:12:12.525Z,23.08
2018-01-20T00:14:40.185Z,27.65
2018-01-20T00:17:13.449Z,26.30
2018-01-20T00:19:41.162Z,35.63
2018-01-20T00:22:12.176Z,34.35
2018-01-20T00:24:46.087Z,26.15
2018-01-20T00:27:14.400Z,28.20
2018-01-20T00:29:41.977Z,32.17
2018-01-20T00:32:09.539Z,25.92
2018-01-20T00:34:41.092Z,26.27
2018-01-20T00:37:08.822Z,29.85
2018-01-20T00:39:36.368Z,24.95
2018-01-20T00:42:03.981Z,23.30
2018-01-20T00:44:31.573Z,23.02
2018-01-20T00:46:59.849Z,25.48
2018-01-20T00:49:28.180Z,31.12
2018-01-20T00:51:55.736Z,33.05
2018-01-20T00:54:23.262Z,29.70
2018-01-20T00:56:51.453Z,32.83
2018-01-20T00:59:19.032Z,33.78
2018-01-20T01:01:47.341Z,33.60
2018-01-20T01:04:14.873Z,29.27
2018-01-20T01:06:42.446Z,31.00
2018-01-20T01:09:10.002Z,28.58
2018-01-20T01:11:37.530Z,30.33
2018-01-20T01:14:05.114Z,29.73
2018-01-20T01:16:32.625Z,22.15
2018-01-20T01:19:00.187Z,28.30
2018-01-20T01:21:28.500Z,25.95
2018-01-20T01:23:56.059Z,28.12
2018-01-20T01:26:23.619Z,26.80
2018-01-20T01:28:51.197Z,32.08
2018-01-20T01:31:18.733Z,27.33
2018-01-20T01:33:46.269Z,31.23
2018-01-20T01:36:13.828Z,30.05
2018-01-20T01:38:41.354Z,24.83
2018-01-20T01:41:09.633Z,26.17
2018-01-20T01:43:37.197Z,22.05
2018-01-20T01:46:04.748Z,33.22
2018-01-20T01:48:33.060Z,25.55
2018-01-20T01:51:00.563Z,25.80
2018-01-20T01:53:28.097Z,27.83
2018-01-20T01:55:55.675Z,20.45
2018-01-20T01:58:23.251Z,21.42
2018-01-20T02:00:50.792Z,24.73
2018-01-20T02:03:18.346Z,18.15
2018-01-20T02:05:45.959Z,22.92
2018-01-20T02:08:13.514Z,21.62
2018-01-20T02:10:41.816Z,23.08
2018-01-20T02:13:09.343Z,17.60
2018-01-20T02:15:37.672Z,19.15
2018-01-20T02:18:05.289Z,11.57
2018-01-20T02:20:33.572Z,17.98
2018-01-20T02:23:01.142Z,19.75
2018-01-20T02:25:28.700Z,23.87
2018-01-20T02:27:56.248Z,17.35
2018-01-20T02:30:24.533Z,19.00
2018-01-20T02:32:52.091Z,18.98
2018-01-20T02:35:19.657Z,14.70
2018-01-20T02:37:47.235Z,19.30
2018-01-20T02:40:14.762Z,16.48
2018-01-20T02:42:43.072Z,16.48
2018-01-20T02:45:10.658Z,16.55
2018-01-20T02:47:38.202Z,18.25
2018-01-20T02:50:05.788Z,16.02
2018-01-20T02:52:33.357Z,21.25
2018-01-20T02:55:00.901Z,21.05
2018-01-20T02:57:28.470Z,19.90
2018-01-20T02:59:56.751Z,16.52
2018-01-20T03:02:24.305Z,22.92
2018-01-20T03:04:52.587Z,21.62
2018-01-20T03:07:20.918Z,20.52
2018-01-20T03:09:48.454Z,16.65
2018-01-20T03:12:16.000Z,19.10
2018-01-20T03:14:43.521Z,15.77
2018-01-20T03:17:11.818Z,17.30
2018-01-20T03:19:40.118Z,18.15
2018-01-20T03:22:07.674Z,19.02
2018-01-20T03:24:35.181Z,17.80
2018-01-20T03:27:02.706Z,17.12
2018-01-20T03:29:30.246Z,22.05
2018-01-20T03:31:57.813Z,18.85
2018-01-20T03:34:25.333Z,19.45
2018-01-20T03:36:53.667Z,17.77
2018-01-20T03:39:21.200Z,23.70
2018-01-20T03:41:48.736Z,23.50
2018-01-20T03:44:17.037Z,19.35
2018-01-20T03:46:44.602Z,24.67
2018-01-20T03:49:12.135Z,19.70
2018-01-20T03:51:40.433Z,25.20
2018-01-20T03:54:08.003Z,15.23
2018-01-20T03:56:35.554Z,14.95
2018-01-20T03:59:03.121Z,18.90
2018-01-20T04:01:30.655Z,17.33
2018-01-20T04:03:58.235Z,18.75
2018-01-20T04:06:25.797Z,14.65
2018-01-20T04:08:53.335Z,20.35
2018-01-20T04:11:20.884Z,18.52
2018-01-20T04:13:49.197Z,11.45
2018-01-20T04:16:16.752Z,17.77
2018-01-20T04:18:44.308Z,19.25
2018-01-20T04:21:11.835Z,24.40
2018-01-20T04:23:40.146Z,21.23
2018-01-20T04:26:07.667Z,11.90
2018-01-20T04:28:36.022Z,16.83
2018-01-20T04:31:03.547Z,17.37
2018-01-20T04:33:31.076Z,20.05
2018-01-20T04:35:59.399Z,15.60
2018-01-20T04:38:27.039Z,14.55
2018-01-20T04:40:54.589Z,15.48
2018-01-20T04:43:22.192Z,20.70
2018-01-20T04:45:49.733Z,27.05
2018-01-20T04:48:17.274Z,23.95
2018-01-20T04:50:44.802Z,23.48
2018-01-20T04:53:13.157Z,32.00
2018-01-20T04:55:40.689Z,24.60
2018-01-20T04:58:08.262Z,23.48
2018-01-20T05:00:35.789Z,29.33
2018-01-20T05:03:03.344Z,22.27
2018-01-20T05:05:30.875Z,13.65
2018-01-20T05:07:59.175Z,25.52
2018-01-20T05:10:26.690Z,36.33
2018-01-20T05:12:55.026Z,38.75
2018-01-20T05:15:22.602Z,35.88
2018-01-20T05:17:50.167Z,36.38
2018-01-20T05:20:17.689Z,27.30
2018-01-20T05:22:45.225Z,26.60
2018-01-20T05:25:13.527Z,35.13
2018-01-20T05:27:41.060Z,37.00
2018-01-20T05:30:09.345Z,37.08
2018-01-20T05:32:37.664Z,43.15
2018-01-20T05:35:05.205Z,37.33
2018-01-20T05:37:32.726Z,27.08
2018-01-20T05:40:00.252Z,43.03
2018-01-20T05:42:27.806Z,35.17
2018-01-20T05:44:55.344Z,36.75
2018-01-20T05:47:22.878Z,41.30
2018-01-20T05:49:51.208Z,37.95
2018-01-20T05:52:18.830Z,44.38
2018-01-20T05:54:46.423Z,44.42
2018-01-20T05:57:13.985Z,38.67
2018-01-20T05:59:41.493Z,42.17
2018-01-20T06:02:09.786Z,37.67
2018-01-20T06:04:37.333Z,45.20
2018-01-20T06:07:05.641Z,40.22
2018-01-20T06:09:33.203Z,37.95
2018-01-20T06:12:00.736Z,34.45
2018-01-20T06:14:29.013Z,32.55
2018-01-20T06:16:57.341Z,35.25
2018-01-20T06:19:24.876Z,39.70
2018-01-20T06:21:52.425Z,38.95
2018-01-20T06:24:19.960Z,43.30
2018-01-20T06:26:47.506Z,30.25
2018-01-20T06:29:15.808Z,38.05
2018-01-20T06:31:43.401Z,32.78
2018-01-20T06:34:11.028Z,28.00
2018-01-20T06:36:39.326Z,34.10
2018-01-20T06:39:07.409Z,29.60
2018-01-20T06:41:34.931Z,37.65
2018-01-20T06:44:02.454Z,34.75
2018-01-20T06:46:30.794Z,34.40
2018-01-20T06:48:58.323Z,36.78
2018-01-20T06:51:25.891Z,36.53
2018-01-20T06:53:54.241Z,30.80
2018-01-20T06:56:21.795Z,33.47
2018-01-20T06:58:49.369Z,30.58
2018-01-20T07:01:16.908Z,25.45
2018-01-20T07:03:45.247Z,33.60
2018-01-20T07:06:12.794Z,30.20
2018-01-20T07:08:41.125Z,32.42
2018-01-20T07:11:08.682Z,34.20
2018-01-20T07:13:37.014Z,39.53
2018-01-20T07:16:04.629Z,37.70
2018-01-20T07:18:32.213Z,46.65
2018-01-20T07:20:59.769Z,34.38
2018-01-20T07:23:27.334Z,33.58
2018-01-20T07:25:54.849Z,41.92
2018-01-20T07:28:22.972Z,39.72
2018-01-20T07:30:50.541Z,38.20
2018-01-20T07:33:18.103Z,53.00
2018-01-20T07:35:45.614Z,43.58
2018-01-20T07:38:13.161Z,48.50
2018-01-20T07:40:40.679Z,36.88
2018-01-20T07:43:08.260Z,42.50
2018-01-20T07:45:36.555Z,48.20
2018-01-20T07:48:04.123Z,45.15
2018-01-20T07:50:31.702Z,44.15
2018-01-20T07:52:59.276Z,42.13
2018-01-20T07:55:26.867Z,43.80
2018-01-20T07:57:55.363Z,39.47
2018-01-20T08:00:22.889Z,37.60
2018-01-20T08:02:50.471Z,43.58
2018-01-20T08:05:18.763Z,37.15
2018-01-20T08:07:46.374Z,36.97
2018-01-20T08:10:13.922Z,46.17
2018-01-20T08:12:41.501Z,38.33
2018-01-20T08:15:09.081Z,38.38
2018-01-20T08:17:37.416Z,32.05
2018-01-20T08:20:05.055Z,30.95
2018-01-20T08:22:32.664Z,35.50
2018-01-20T08:25:00.326Z,36.15
2018-01-20T08:27:27.888Z,32.00
2018-01-20T08:29:55.529Z,29.15
2018-01-20T08:32:23.066Z,27.08
2018-01-20T08:34:50.625Z,31.50
2018-01-20T08:37:18.198Z,24.85
2018-01-20T08:39:45.777Z,26.80
2018-01-20T08:42:13.331Z,29.73
2018-01-20T08:44:40.878Z,32.08
2018-01-20T08:47:08.461Z,26.10
2018-01-20T08:49:36.016Z,21.65
2018-01-20T08:52:03.579Z,32.53
2018-01-20T08:54:33.566Z,21.73
2018-01-20T08:57:01.126Z,22.30
2018-01-20T08:59:28.663Z,20.08
2018-01-20T09:01:59.611Z,28.58
2018-01-20T09:04:27.293Z,25.17
2018-01-20T09:06:54.886Z,22.15
2018-01-20T09:09:22.434Z,24.90
2018-01-20T09:11:49.987Z,28.98
2018-01-20T09:14:17.551Z,25.83
2018-01-20T09:16:45.104Z,28.00
2018-01-20T09:19:12.674Z,26.58
2018-01-20T09:21:40.246Z,25.17
2018-01-20T09:24:07.852Z,21.87
2018-01-20T09:26:35.384Z,18.00
2018-01-20T09:29:02.923Z,26.85
2018-01-20T09:31:30.462Z,16.23
2018-01-20T09:33:58.016Z,21.52
2018-01-20T09:36:25.553Z,23.98
2018-01-20T09:38:53.095Z,20.25
2018-01-20T09:41:20.626Z,17.67
2018-01-20T09:43:48.236Z,15.73
2018-01-20T09:46:15.819Z,12.95
2018-01-20T09:48:43.374Z,14.38
2018-01-20T09:51:11.088Z,15.82
2018-01-20T09:53:38.616Z,18.12
2018-01-20T09:56:06.152Z,14.68
2018-01-20T09:58:33.740Z,23.73
2018-01-20T10:01:02.136Z,12.55
2018-01-20T10:03:30.463Z,13.27
2018-01-20T10:05:58.004Z,19.45
2018-01-20T10:08:25.546Z,13.02
2018-01-20T10:10:53.076Z,18.87
2018-01-20T10:13:21.393Z,16.58
2018-01-20T10:15:49.079Z,18.17
2018-01-20T10:18:16.651Z,10.65
2018-01-20T10:20:44.206Z,10.57
2018-01-20T10:23:11.749Z,12.93
2018-01-20T10:25:39.264Z,17.27
2018-01-20T10:28:07.605Z,17.12
2018-01-20T10:30:35.197Z,10.43
2018-01-20T10:33:03.491Z,17.00
2018-01-20T10:35:31.073Z,9.40
2018-01-20T10:37:58.641Z,12.93
2018-01-20T10:40:26.249Z,10.32
2018-01-20T10:42:53.816Z,14.90
2018-01-20T10:45:22.107Z,14.23
2018-01-20T10:47:49.757Z,10.65
2018-01-20T10:50:18.136Z,5.90
2018-01-20T10:52:46.543Z,16.70
2018-01-20T10:55:14.128Z,13.30
2018-01-20T10:57:43.409Z,17.62
2018-01-20T11:00:10.948Z,23.62
2018-01-20T11:02:39.348Z,16.42
2018-01-20T11:05:06.958Z,15.18
2018-01-20T11:07:34.577Z,7.15
2018-01-20T11:10:02.164Z,14.00
2018-01-20T11:12:29.725Z,11.15
2018-01-20T11:14:57.255Z,11.23
2018-01-20T11:17:25.702Z,13.95
2018-01-20T11:19:53.333Z,15.57
2018-01-20T11:22:20.968Z,16.90
2018-01-20T11:24:48.502Z,7.00
2018-01-20T11:27:16.070Z,5.65
2018-01-20T11:29:43.672Z,10.77
2018-01-20T11:32:11.256Z,17.08
2018-01-20T11:34:38.794Z,11.27
2018-01-20T11:37:06.386Z,9.75
2018-01-20T11:39:33.985Z,9.38
2018-01-20T11:42:01.572Z,22.83
2018-01-20T11:44:29.932Z,11.05
2018-01-20T11:46:57.575Z,16.30
2018-01-20T11:49:25.159Z,16.42
2018-01-20T11:51:52.792Z,14.30
2018-01-20T11:54:20.392Z,7.62
2018-01-20T11:56:47.968Z,10.18
2018-01-20T11:59:16.508Z,13.40
2018-01-20T12:01:44.134Z,8.00
2018-01-20T12:04:11.737Z,15.90
2018-01-20T12:06:39.255Z,14.30
2018-01-20T12:09:06.841Z,8.55
2018-01-20T12:11:34.526Z,11.27
2018-01-20T12:14:02.931Z,6.78
2018-01-20T12:16:30.459Z,9.90
2018-01-20T12:18:58.023Z,12.10
2018-01-20T12:21:26.381Z,13.13
2018-01-20T12:23:53.997Z,10.52
2018-01-20T12:26:21.573Z,13.18
2018-01-20T12:28:49.238Z,7.85
2018-01-20T12:31:16.776Z,9.30
2018-01-20T12:33:45.147Z,19.27
2018-01-20T12:36:12.661Z,8.55
2018-01-20T12:38:42.076Z,11.50
2018-01-20T12:41:10.562Z,8.50
2018-01-20T12:43:38.155Z,17.87
2018-01-20T12:46:05.707Z,12.73
2018-01-20T12:48:34.047Z,8.18
2018-01-20T12:51:01.617Z,10.45
2018-01-20T12:53:29.181Z,11.07
2018-01-20T12:55:56.742Z,12.02
2018-01-20T12:58:24.315Z,6.50
2018-01-20T13:00:52.611Z,8.15
2018-01-20T13:03:20.241Z,10.77
2018-01-20T13:05:48.631Z,8.27
2018-01-20T13:08:16.271Z,8.82
2018-01-20T13:10:43.835Z,10.25
2018-01-20T13:13:11.454Z,11.05
2018-01-20T13:15:39.023Z,6.60
2018-01-20T13:18:06.571Z,10.63
2018-01-20T13:20:35.106Z,7.53
2018-01-20T13:23:03.610Z,7.97
2018-01-20T13:25:31.343Z,12.63
2018-01-20T13:27:58.883Z,18.33
2018-01-20T13:30:26.417Z,11.82
2018-01-20T13:32:54.240Z,14.32
2018-01-20T13:35:21.836Z,12.23
2018-01-20T13:37:49.457Z,16.30
2018-01-20T13:40:17.060Z,15.57
2018-01-20T13:42:44.674Z,11.32
2018-01-20T13:45:12.245Z,18.40
2018-01-20T13:47:39.840Z,18.85
2018-01-20T13:50:08.404Z,12.23
2018-01-20T13:52:36.783Z,8.23
2018-01-20T13:55:05.110Z,8.50
2018-01-20T13:57:32.708Z,8.10
2018-01-20T14:00:00.889Z,6.62
2018-01-20T14:02:28.474Z,10.25
2018-01-20T14:04:56.216Z,12.55
2018-01-20T14:07:23.726Z,8.07
2018-01-20T14:09:51.339Z,7.68
2018-01-20T14:12:18.934Z,8.50
2018-01-20T14:14:46.502Z,12.63
2018-01-20T14:17:14.056Z,5.97
2018-01-20T14:19:42.497Z,10.15
2018-01-20T14:22:10.204Z,8.13
2018-01-20T14:24:37.739Z,7.60
2018-01-20T14:27:05.331Z,10.30
2018-01-20T14:29:33.674Z,9.63
2018-01-20T14:32:01.434Z,7.45
2018-01-20T14:34:29.216Z,3.50
2018-01-20T14:36:56.815Z,9.85
2018-01-20T14:39:24.424Z,5.45
2018-01-20T14:41:52.008Z,3.90
2018-01-20T14:44:19.538Z,10.55
2018-01-20T14:46:47.097Z,6.43
2018-01-20T14:49:14.793Z,10.30
2018-01-20T14:51:42.357Z,12.93
2018-01-20T14:54:10.727Z,17.67
2018-01-20T14:56:38.282Z,6.62
2018-01-20T14:59:05.897Z,10.15
2018-01-20T15:01:33.476Z,8.20
2018-01-20T15:04:01.115Z,7.30
2018-01-20T15:06:28.667Z,11.27
2018-01-20T15:08:57.040Z,9.85
2018-01-20T15:11:24.591Z,6.87
2018-01-20T15:13:52.264Z,13.65
2018-01-20T15:16:19.857Z,4.95
2018-01-20T15:18:48.543Z,7.00
2018-01-20T15:21:16.923Z,5.57
2018-01-20T15:23:44.452Z,7.18
2018-01-20T15:26:12.133Z,6.85
2018-01-20T15:28:39.732Z,7.10
2018-01-20T15:31:07.305Z,7.15
2018-01-20T15:33:34.864Z,12.68
2018-01-20T15:36:03.179Z,14.65
2018-01-20T15:38:30.769Z,20.92
2018-01-20T15:40:59.122Z,23.38
2018-01-20T15:43:26.666Z,6.62
2018-01-20T15:45:54.241Z,12.90
2018-01-20T15:48:21.858Z,18.23
2018-01-20T15:50:49.550Z,22.98
2018-01-20T15:53:17.137Z,15.68
2018-01-20T15:55:44.701Z,7.57
2018-01-20T15:58:12.237Z,21.02
2018-01-20T16:00:39.817Z,18.30
2018-01-20T16:03:07.392Z,13.85
2018-01-20T16:05:34.938Z,13.10
2018-01-20T16:08:02.466Z,10.98
2018-01-20T16:10:30.194Z,10.05
2018-01-20T16:12:57.855Z,8.38
2018-01-20T16:15:25.502Z,13.25
2018-01-20T16:17:53.068Z,9.80
2018-01-20T16:20:20.658Z,12.63
2018-01-20T16:22:49.036Z,7.03
2018-01-20T16:25:16.642Z,10.73
2018-01-20T16:27:44.192Z,9.38
2018-01-20T16:30:11.912Z,6.93
2018-01-20T16:32:39.641Z,6.68
2018-01-20T16:35:07.172Z,7.40
2018-01-20T16:37:34.758Z,8.85
2018-01-20T16:40:02.508Z,7.90
2018-01-20T16:42:30.054Z,8.85
2018-01-20T16:44:57.868Z,10.50
2018-01-20T16:47:26.238Z,14.15
2018-01-20T16:49:56.954Z,6.07
2018-01-20T16:52:24.716Z,15.25
2018-01-20T16:54:53.117Z,9.38
2018-01-20T16:57:20.799Z,11.20
2018-01-20T16:59:48.413Z,10.18
2018-01-20T17:02:16.832Z,13.02
2018-01-20T17:04:45.210Z,9.30
2018-01-20T17:07:13.630Z,10.00
2018-01-20T17:09:42.083Z,10.50
2018-01-20T17:12:10.245Z,12.00
2018-01-20T17:14:38.574Z,9.75
2018-01-20T17:17:07.000Z,8.10
2018-01-20T17:19:35.331Z,11.52
2018-01-20T17:22:02.951Z,10.27
2018-01-20T17:24:30.527Z,10.45
2018-01-20T17:26:58.261Z,9.27
2018-01-20T17:29:26.654Z,16.67
2018-01-20T17:31:54.228Z,10.38
2018-01-20T17:34:21.812Z,14.05
2018-01-20T17:36:49.407Z,14.45
2018-01-20T17:39:16.991Z,12.60
2018-01-20T17:41:45.358Z,14.65
2018-01-20T17:44:13.731Z,18.25
2018-01-20T17:46:41.773Z,10.48
2018-01-20T17:49:09.329Z,12.57
2018-01-20T17:51:36.886Z,17.20
2018-01-20T17:54:04.497Z,16.58
2018-01-20T17:56:32.058Z,14.75
2018-01-20T17:58:59.661Z,14.95
2018-01-20T18:01:28.090Z,18.15
2018-01-20T18:03:55.747Z,13.00
2018-01-20T18:06:24.108Z,14.93
2018-01-20T18:08:51.689Z,19.37
2018-01-20T18:11:19.264Z,15.88
2018-01-20T18:13:46.836Z,13.25
2018-01-20T18:16:14.424Z,13.73
2018-01-20T18:18:42.047Z,20.30
2018-01-20T18:21:10.408Z,16.65
2018-01-20T18:23:37.994Z,18.37
2018-01-20T18:26:05.598Z,12.00
2018-01-20T18:28:33.283Z,13.27
2018-01-20T18:31:00.879Z,13.95
2018-01-20T18:33:29.102Z,18.15
2018-01-20T18:35:56.730Z,13.13
2018-01-20T18:38:24.416Z,18.35
2018-01-20T18:40:51.998Z,13.20
2018-01-20T18:43:19.583Z,26.27
2018-01-20T18:45:47.950Z,12.43
2018-01-20T18:48:16.306Z,12.48
2018-01-20T18:50:43.898Z,10.18
2018-01-20T18:53:12.261Z,12.27
2018-01-20T18:55:39.802Z,18.60
2018-01-20T18:58:07.471Z,15.18
2018-01-20T19:00:35.076Z,20.77
2018-01-20T19:03:02.623Z,16.37
2018-01-20T19:05:30.149Z,14.75
2018-01-20T19:07:58.806Z,13.38
2018-01-20T19:10:26.418Z,23.02
2018-01-20T19:12:54.020Z,14.10
2018-01-20T19:15:21.635Z,19.25
2018-01-20T19:17:49.253Z,14.50
2018-01-20T19:20:18.367Z,13.10
2018-01-20T19:22:46.738Z,16.00
2018-01-20T19:25:14.434Z,17.45
2018-01-20T19:27:42.012Z,11.75
2018-01-20T19:30:09.635Z,14.38
2018-01-20T19:32:37.971Z,14.93
2018-01-20T19:35:05.577Z,19.90
2018-01-20T19:37:33.209Z,17.15
2018-01-20T19:40:00.797Z,15.90
2018-01-20T19:42:29.165Z,14.48
2018-01-20T19:44:57.481Z,11.27
2018-01-20T19:47:25.259Z,11.77
2018-01-20T19:49:53.078Z,9.35
2018-01-20T19:52:21.523Z,10.85
2018-01-20T19:54:49.094Z,11.25
2018-01-20T19:57:16.668Z,9.60
2018-01-20T19:59:44.302Z,14.77
2018-01-20T20:02:12.001Z,13.38
2018-01-20T20:04:39.635Z,13.90
2018-01-20T20:07:07.265Z,20.37
2018-01-20T20:09:34.818Z,17.75
2018-01-20T20:12:02.451Z,13.40
2018-01-20T20:14:30.003Z,16.48
2018-01-20T20:16:58.355Z,18.02
2018-01-20T20:19:25.926Z,12.57
2018-01-20T20:21:54.158Z,17.50
2018-01-20T20:24:21.784Z,14.57
2018-01-20T20:26:49.513Z,18.77
2018-01-20T20:29:18.023Z,13.40
2018-01-20T20:31:45.586Z,10.55
2018-01-20T20:34:13.363Z,13.02
2018-01-20T20:36:40.923Z,16.12
2018-01-20T20:39:08.492Z,13.52
2018-01-20T20:41:36.015Z,15.00
2018-01-20T20:44:03.641Z,18.25
2018-01-20T20:46:31.286Z,12.93
2018-01-20T20:48:59.635Z,24.92
2018-01-20T20:51:27.256Z,14.20
2018-01-20T20:53:54.829Z,17.60
2018-01-20T20:56:22.401Z,15.52
2018-01-20T20:58:50.018Z,14.70
2018-01-20T21:01:17.657Z,21.80
2018-01-20T21:03:46.113Z,17.00
2018-01-20T21:06:13.723Z,14.95
2018-01-20T21:08:41.296Z,13.50
2018-01-20T21:11:08.838Z,19.20
2018-01-20T21:13:36.421Z,14.73
2018-01-20T21:16:04.022Z,13.68
2018-01-20T21:18:31.713Z,16.87
2018-01-20T21:20:59.273Z,14.43
2018-01-20T21:23:27.605Z,15.07
2018-01-20T21:25:55.263Z,17.25
2018-01-20T21:28:22.812Z,16.52
2018-01-20T21:30:50.421Z,15.10
2018-01-20T21:33:19.077Z,16.80
2018-01-20T21:35:46.613Z,12.18
2018-01-20T21:38:14.194Z,20.80
2018-01-20T21:40:42.001Z,14.82
2018-01-20T21:43:10.355Z,16.27
2018-01-20T21:45:37.910Z,16.37
2018-01-20T21:48:05.510Z,13.43
2018-01-20T21:50:34.053Z,23.60
2018-01-20T21:53:01.978Z,19.02
2018-01-20T21:55:29.517Z,14.87
2018-01-20T21:57:57.105Z,16.50
2018-01-20T22:00:24.724Z,15.48
2018-01-20T22:02:52.314Z,14.95
2018-01-20T22:05:19.915Z,16.10
2018-01-20T22:07:47.532Z,13.07
2018-01-20T22:10:16.741Z,12.77
2018-01-20T22:12:45.143Z,14.18
2018-01-20T22:15:13.450Z,5.50
2018-01-20T22:17:41.010Z,13.18
2018-01-20T22:20:08.685Z,12.15
2018-01-20T22:22:36.306Z,11.88
2018-01-20T22:25:04.059Z,12.68
2018-01-20T22:27:32.536Z,13.65
2018-01-20T22:30:01.608Z,11.57
2018-01-20T22:32:29.140Z,9.75
2018-01-20T22:34:57.002Z,13.00
2018-01-20T22:37:24.644Z,9.90
2018-01-20T22:39:52.213Z,17.15
2018-01-20T22:42:19.838Z,20.37
2018-01-20T22:44:47.507Z,13.80
2018-01-20T22:47:15.082Z,14.32
2018-01-20T22:49:42.703Z,13.62
2018-01-20T22:52:10.267Z,14.87
2018-01-20T22:54:37.819Z,18.08
2018-01-20T22:57:05.429Z,18.65
2018-01-20T22:59:33.044Z,23.70
2018-01-20T23:02:01.710Z,17.92
2018-01-20T23:04:29.512Z,19.95
2018-01-20T23:06:57.916Z,18.10
2018-01-20T23:09:25.526Z,27.05
2018-01-20T23:11:53.132Z,22.45
2018-01-20T23:14:20.691Z,22.30
2018-01-20T23:16:48.287Z,18.25
2018-01-20T23:19:15.981Z,28.55
2018-01-20T23:21:43.555Z,26.00
2018-01-20T23:24:12.015Z,21.77
2018-01-20T23:26:40.501Z,20.12
2018-01-20T23:29:08.877Z,22.92
2018-01-20T23:31:37.336Z,23.67
2018-01-20T23:34:06.178Z,21.75
2018-01-20T23:36:33.876Z,28.40
2018-01-20T23:39:01.449Z,32.13
2018-01-20T23:41:29.242Z,22.83
2018-01-20T23:43:57.132Z,29.60
2018-01-20T23:46:24.716Z,18.30
2018-01-20T23:48:52.290Z,27.55
2018-01-20T23:51:19.864Z,25.50
2018-01-20T23:53:47.540Z,28.08
2018-01-20T23:56:15.321Z,24.67
2018-01-20T23:58:42.929Z,27.13
